APRS [IN73DN], 0 Stunde(n), DL3EL [09:38:45, 0s].
LEEL 43.32.98N 005.41.71WIN73DN 1.768km 144°SE07:30:04ZHelipuerto de El Musel: LEAS 240630Z 23009KT CAVOK 10/07 Q1020 NOSIG=
EB1TK 43.32.20N 005.42.32WIN73DM 2.882km 175°S07:33:55ZWind 217°/006kn, Böen bis 010kn, Temp 10.56c, Regen 0.0mm, letzte 24h 0.0mm, seit 0h 0.0mm, Baro 1024.5h, Hum: 84%(3EB1TK-13)
EB1TK-6>CQ,TCPIP*,qAC,T2SPAIN:SatGate - APRS Satellite Traffic and Reporting System (ASTARS)(2EB1TK-6)
EA1IEJ 43.31.81N 005.40.25WIN73DM 4.680km 140°SE07:31:13ZMMDVM MMDVM HS Hat 438.8500/438.8500 CC6
EA1FFA 43.31.53N 005.40.64WIN73DM 4.795km 149°SSE07:31:26ZMMDVM MMDVM HS Hat 438.8000/438.8000 CC1
EA1DZR 43.31.48N 005.40.00WIN73EM 5.380km 141°SE07:32:08ZMMDVM DVS 434.3500/434.3500 CC1
ED1ZAE 43.27.97N 005.40.54WIN73DL 11.007km 166°SSE07:21:59ZWIDE3-3 ESAS3-3 IN73DL WWW.EA1URG.ORG(3ED1ZAE-3)
2m Voice 145.5875 -0.600 Mhz(2ED1ZAE-C)
EB1GEM 43.30.00N 005.36.07WIN73EM 11.072km 129°SE07:36:23ZWX3in1Plus2.0 U=13.3V,T=??.?C/??.?F(3EB1GEM-3)
ED1ZAS 43.27.52N 005.40.17WIN73DL 11.939km 165°SSE07:32:21ZRD985 438.2250/430.6250 CC1
EA1IPU 43.26.21N 005.46.62WIN73CK 15.013km 202°SSW07:30:04ZMMDVM MMDVM HS Hat 439.8000/439.8000 CC1
EA1AHA 43.32.72N 005.54.38WIN73BN 16.068km 263°W07:36:09ZWind 180°/001kn, Böen bis 002kn, Temp 11.11c, Regen 0.0mm, letzte 24h 0.0mm, seit 0h 0.0mm, Baro 1022.7h, Hum: 90%(3EA1AHA-13)
LEGM 43.26.15N 005.49.84WIN73CK 17.181km 215°SW07:30:03ZHelipuerto de La Morgal: LEAS 240630Z 23009KT CAVOK 10/07 Q1020 NOSIG=
LEMR 43.25.83N 005.49.60WIN73CK 17.514km 213°SSW07:30:04ZAerodromo de la Morgal: LEAS 240630Z 23009KT CAVOK 10/07 Q1020 NOSIG=
EA1ABW 43.24.77N 005.47.77WIN73CJ 18.074km 203°SSW07:31:10ZMMDVM MMDVM HS Hat 439.8250/439.8250 CC1
ED1ZAY 43.29.47N 005.56.54WIN73AL 20.470km 247°WSW07:32:20ZRD625 438.3000/430.7000 CC1
EA1DHE 43.33.98N 005.58.57WIN73AN 21.584km 271°W07:32:06ZMMDVM DVS 434.3500/434.3500 CC1
LEHU 43.22.63N 005.49.57WIN73CJ 22.699km 205°SSW07:30:03ZHelipuerto del HUCA: LEAS 240630Z 23009KT CAVOK 10/07 Q1020 NOSIG=
EA1FLQ 43.22.00N 005.36.35WIN73EI 23.285km 159°SSE07:31:36ZMMDVM DVMega 439.9750/439.9750 CC1
EA1HWD 43.28.96N 005.26.30WIN73GL 23.504km 112°ESE07:30:24Z144.575FM Local frecuency VHF. 434.2500/434.2500 CC1
EA1FHR 43.28.72N 005.26.41WIN73GL 23.528km 113°ESE07:30:55ZMMDVM MMDVM HS Hat 439.1500/439.1500 CC1
ED1ZAU 43.23.04N 005.52.75WIN73BJ 24.171km 215°SW07:32:21ZRD625 438.5000/430.9000 CC1
EA1YR 43.22.09N 005.51.86WIN73BI 24.997km 210°SSW07:32:09ZMMDVM DVS 434.3500/434.3500 CC1
33D00 43.21.63N 005.51.13WIN73BI 25.281km 207°SSW07:02:07Z33-D-00 Protección Civil REMER / Delegación del Gobierno en Asturias
EA1JAY 43.21.54N 005.51.34WIN73BI 25.566km 208°SSW07:00:25ZEA1JAY(3EA1JAY-2)
434.525MHz Nodo TETRA DMO(2EA1JAY-4)
EA1HJA 43.21.47N 005.52.09WIN73BI 26.148km 210°SSW07:19:38Z IN73FL WX3IN1+ 2.0 - V=13.2V,TX TEMP=26.8C(3EA1HJA-2)
IN73FL WX3IN1+ 2.0 - V=14.0V,TX TEMP=44.0C(2EA1HJA)
EA1L 43.20.37N 005.51.13WIN73BI 27.360km 205°SSW07:30:05Zea1l@ure.es V=13.8V,T=??.?C
Wind 155°/001kn, Böen bis 003kn, Temp 11.11c, Regen 0.0mm, letzte 24h 0.0mm, seit 0h 0.0mm, Baro 1019.7h, Hum: 0%(2EA1L-13)
EA1JBU 43.30.80N 005.16.20WIN73IM 35.732km 99°E07:30:04ZEA1JBU(3EA1JBU-2)
EA1JBE 43.30.90N 005.16.15WIN73IM 35.783km 98°E07:30:04ZEA1JBU(3EA1JBE-13)
MAIN QTH http://qrz.com/db/ea1jbe(2EA1JBE-1)
EB1DGC 43.12.60N 005.45.59WIN73CF 39.412km 186°S07:31:13ZMMDVM MMDVM HS Hat 433.4500/433.4500 CC1
EA1JBL 43.12.28N 005.47.42WIN73CE 40.315km 190°S07:31:40ZMMDVM DVMega 435.3000/435.3000 CC1
EA1HWA 43.12.00N 005.47.40WIN73CE 40.839km 189°S07:31:36ZMMDVM MMDVM HS Hat 433.4500/433.4500 CC1
EC1KV 43.34.01N 006.16.01WIN63UN 44.997km 271°W07:33:05ZALBUERNE(3EC1KV-1)
EA1RCG 43.09.45N 005.49.78WIN73CD 46.068km 192°SSW07:30:47ZGRUPO RADIO GALENA (GRG) 433.4500/433.4500 CC1
EA1GS 43.23.36N 005.11.20WIN73JJ 46.259km 114°ESE07:31:40ZMMDVM MMDVM HS Hat 436.1000/436.1000 CC1
ED1ZAD 43.07.90N 005.38.52WIN73ED 48.178km 174°S07:29:33ZED1ZAD-3 APRS Digi/Igate(3ED1ZAD-3)

aprs.pl 5.0.011w DL3EL © 2006-2021 [1046130]